createdAt,value
2023-08-31T00:01:21.878Z,100153.06
2023-08-31T00:03:49.113Z,100154.13
2023-08-31T00:06:16.232Z,100151.09
2023-08-31T00:08:43.338Z,100152.31
2023-08-31T00:11:10.441Z,100156.75
2023-08-31T00:13:37.598Z,100152.84
2023-08-31T00:16:06.075Z,100145.75
2023-08-31T00:18:33.155Z,100145.75
2023-08-31T00:21:00.300Z,100148.03
2023-08-31T00:23:27.331Z,100143.31
2023-08-31T00:25:54.760Z,100151.59
2023-08-31T00:28:22.542Z,100144.91
2023-08-31T00:30:50.146Z,100149.94
2023-08-31T00:33:17.680Z,100151.03
2023-08-31T00:35:49.305Z,100141.66
2023-08-31T00:38:16.478Z,100143.50
2023-08-31T00:40:45.884Z,100147.47
2023-08-31T00:43:16.726Z,100149.16
2023-08-31T00:45:45.367Z,100147.22
2023-08-31T00:48:13.253Z,100155.78
2023-08-31T00:50:40.715Z,100153.34
2023-08-31T00:53:07.999Z,100148.38
2023-08-31T00:55:35.335Z,100152.25
2023-08-31T00:58:02.404Z,100154.09
2023-08-31T01:00:34.432Z,100154.88
2023-08-31T01:03:04.975Z,100151.69
2023-08-31T01:05:55.468Z,100154.94
2023-08-31T01:08:31.183Z,100150.66
2023-08-31T01:10:58.335Z,100154.78
2023-08-31T01:13:25.744Z,100153.59
2023-08-31T01:15:57.273Z,100159.09
2023-08-31T01:18:26.665Z,100159.88
2023-08-31T01:21:03.442Z,100158.84
2023-08-31T01:23:35.753Z,100151.38
2023-08-31T01:26:03.377Z,100164.78
2023-08-31T01:28:30.700Z,100166.84
2023-08-31T01:30:58.326Z,100173.97
2023-08-31T01:33:25.752Z,100168.16
2023-08-31T01:35:55.517Z,100176.81
2023-08-31T01:38:28.474Z,100179.25
2023-08-31T01:40:58.867Z,100186.66
2023-08-31T01:43:26.200Z,100179.59
2023-08-31T01:45:55.012Z,100176.81
2023-08-31T01:48:22.373Z,100181.19
2023-08-31T01:50:49.432Z,100193.09
2023-08-31T01:53:16.629Z,100178.53
2023-08-31T01:55:43.728Z,100184.41
2023-08-31T01:58:10.968Z,100187.28
2023-08-31T02:00:39.715Z,100187.66
2023-08-31T02:03:09.259Z,100195.72
2023-08-31T02:05:36.626Z,100190.03
2023-08-31T02:08:03.869Z,100190.28
2023-08-31T02:10:31.089Z,100197.19
2023-08-31T02:12:58.152Z,100199.34
2023-08-31T02:15:25.701Z,100195.03
2023-08-31T02:17:54.030Z,100192.56
2023-08-31T02:20:21.646Z,100192.47
2023-08-31T02:22:49.820Z,100197.22
2023-08-31T02:25:17.798Z,100199.00
2023-08-31T02:27:47.010Z,100199.63
2023-08-31T02:30:16.106Z,100198.88
2023-08-31T02:32:44.143Z,100206.56
2023-08-31T02:35:14.797Z,100203.47
2023-08-31T02:37:42.399Z,100203.13
2023-08-31T02:40:09.902Z,100201.09
2023-08-31T02:42:37.073Z,100203.13
2023-08-31T02:45:05.180Z,100215.44
2023-08-31T02:47:32.461Z,100216.88
2023-08-31T02:50:00.835Z,100211.50
2023-08-31T02:52:28.124Z,100219.72
2023-08-31T02:54:55.250Z,100216.88
2023-08-31T02:57:22.957Z,100219.84
2023-08-31T02:59:53.428Z,100229.16
2023-08-31T03:02:21.405Z,100223.78
2023-08-31T03:04:48.608Z,100227.13
2023-08-31T03:07:16.504Z,100223.78
2023-08-31T03:09:43.701Z,100234.28
2023-08-31T03:12:10.855Z,100229.28
2023-08-31T03:14:38.404Z,100228.31
2023-08-31T03:17:05.547Z,100230.59
2023-08-31T03:19:32.595Z,100228.47
2023-08-31T03:21:59.821Z,100232.16
2023-08-31T03:24:27.696Z,100231.66
2023-08-31T03:26:57.222Z,100239.28
2023-08-31T03:29:24.338Z,100243.06
2023-08-31T03:31:51.568Z,100230.72
2023-08-31T03:34:18.901Z,100234.06
2023-08-31T03:36:46.247Z,100246.94
2023-08-31T03:39:13.402Z,100247.88
2023-08-31T03:41:40.516Z,100239.97
2023-08-31T03:44:09.407Z,100246.22
2023-08-31T03:46:36.483Z,100243.97
2023-08-31T03:49:03.682Z,100244.72
2023-08-31T03:51:30.843Z,100247.41
2023-08-31T03:53:58.020Z,100251.50
2023-08-31T03:56:25.142Z,100257.47
2023-08-31T03:58:52.407Z,100256.88
2023-08-31T04:01:19.522Z,100261.25
2023-08-31T04:03:47.766Z,100262.59
2023-08-31T04:06:15.895Z,100271.53
2023-08-31T04:08:43.049Z,100264.63
2023-08-31T04:11:10.117Z,100272.28
2023-08-31T04:13:37.488Z,100273.22
2023-08-31T04:16:04.767Z,100275.00
2023-08-31T04:18:32.028Z,100276.28
2023-08-31T04:21:02.633Z,100278.91
2023-08-31T04:23:30.250Z,100285.28
2023-08-31T04:25:58.843Z,100287.41
2023-08-31T04:28:26.217Z,100293.75
2023-08-31T04:30:53.400Z,100301.88
2023-08-31T04:33:20.766Z,100303.31
2023-08-31T04:35:47.959Z,100305.28
2023-08-31T04:38:15.046Z,100308.41
2023-08-31T04:40:42.046Z,100304.75
2023-08-31T04:43:09.337Z,100307.47
2023-08-31T04:45:36.558Z,100307.31
2023-08-31T04:48:04.390Z,100304.72
2023-08-31T04:50:31.484Z,100311.88
2023-08-31T04:52:59.181Z,100316.19
2023-08-31T04:55:26.500Z,100307.22
2023-08-31T04:57:53.655Z,100308.56
2023-08-31T05:00:20.652Z,100320.00
2023-08-31T05:02:47.885Z,100326.00
2023-08-31T05:05:15.203Z,100312.00
2023-08-31T05:07:42.588Z,100323.56
2023-08-31T05:10:09.829Z,100327.03
2023-08-31T05:12:37.056Z,100338.13
2023-08-31T05:15:04.234Z,100333.41
2023-08-31T05:17:32.238Z,100332.72
2023-08-31T05:19:59.359Z,100337.06
2023-08-31T05:22:26.530Z,100340.88
2023-08-31T05:24:53.584Z,100344.94
2023-08-31T05:27:20.810Z,100342.81
2023-08-31T05:29:47.991Z,100349.97
2023-08-31T05:32:15.217Z,100348.06
2023-08-31T05:34:42.363Z,100349.50
2023-08-31T05:37:09.705Z,100343.06
2023-08-31T05:39:37.005Z,100346.66
2023-08-31T05:42:04.396Z,100347.97
2023-08-31T05:44:31.512Z,100358.59
2023-08-31T05:46:58.718Z,100362.19
2023-08-31T05:49:25.788Z,100359.53
2023-08-31T05:51:52.911Z,100362.81
2023-08-31T05:54:20.045Z,100362.81
2023-08-31T05:56:48.918Z,100363.50
2023-08-31T05:59:15.964Z,100373.56
2023-08-31T06:01:44.526Z,100370.94
2023-08-31T06:04:11.671Z,100378.94
2023-08-31T06:06:38.961Z,100387.66
2023-08-31T06:09:07.866Z,100391.88
2023-08-31T06:11:36.218Z,100394.09
2023-08-31T06:14:04.509Z,100390.25
2023-08-31T06:16:31.726Z,100393.09
2023-08-31T06:18:58.833Z,100400.53
2023-08-31T06:21:25.869Z,100404.63
2023-08-31T06:23:52.972Z,100406.31
2023-08-31T06:26:20.179Z,100419.03
2023-08-31T06:28:47.272Z,100423.84
2023-08-31T06:31:14.374Z,100421.19
2023-08-31T06:33:41.919Z,100428.69
2023-08-31T06:36:09.106Z,100437.94
2023-08-31T06:38:36.559Z,100437.94
2023-08-31T06:41:03.973Z,100443.97
2023-08-31T06:43:31.084Z,100449.44
2023-08-31T06:46:04.389Z,100451.13
2023-08-31T06:48:37.732Z,100463.09
2023-08-31T06:51:05.049Z,100466.22
2023-08-31T06:53:35.130Z,100469.50
2023-08-31T06:56:02.222Z,100474.44
2023-08-31T06:58:29.279Z,100475.22
2023-08-31T07:00:56.405Z,100474.25
2023-08-31T07:03:26.225Z,100479.75
2023-08-31T07:05:55.317Z,100486.38
2023-08-31T07:08:22.464Z,100482.06
2023-08-31T07:10:53.077Z,100493.53
2023-08-31T07:13:20.141Z,100489.41
2023-08-31T07:15:49.611Z,100494.59
2023-08-31T07:18:16.827Z,100495.75
2023-08-31T07:20:46.284Z,100496.47
2023-08-31T07:23:13.539Z,100503.47
2023-08-31T07:25:40.923Z,100504.09
2023-08-31T07:28:08.104Z,100503.28
2023-08-31T07:30:35.308Z,100518.34
2023-08-31T07:33:11.154Z,100515.91
2023-08-31T07:35:41.139Z,100526.94
2023-08-31T07:38:08.174Z,100527.66
2023-08-31T07:40:35.419Z,100523.56
2023-08-31T07:43:02.517Z,100528.38
2023-08-31T07:45:29.617Z,100530.78
2023-08-31T07:47:56.883Z,100534.47
2023-08-31T07:50:24.059Z,100545.16
2023-08-31T07:52:51.153Z,100546.53
2023-08-31T07:55:18.318Z,100545.19
2023-08-31T07:57:45.858Z,100549.78
2023-08-31T08:00:15.516Z,100548.94
2023-08-31T08:02:42.931Z,100548.31
2023-08-31T08:05:10.207Z,100544.03
2023-08-31T08:07:37.500Z,100544.22
2023-08-31T08:10:04.825Z,100549.44
2023-08-31T08:12:44.698Z,100552.41
2023-08-31T08:15:12.207Z,100553.53
2023-08-31T08:17:39.845Z,100554.56
2023-08-31T08:20:07.917Z,100555.94
2023-08-31T08:22:35.094Z,100560.56
2023-08-31T08:25:02.183Z,100562.03
2023-08-31T08:31:52.123Z,100557.88
2023-08-31T08:34:19.249Z,100566.66
2023-08-31T08:36:46.284Z,100568.97
2023-08-31T08:39:13.501Z,100576.34
2023-08-31T08:41:40.674Z,100576.09
2023-08-31T08:44:08.189Z,100575.59
2023-08-31T08:46:35.953Z,100575.53
2023-08-31T08:49:04.014Z,100576.25
2023-08-31T08:51:32.490Z,100581.00
2023-08-31T08:54:00.564Z,100578.59
2023-08-31T08:56:27.695Z,100580.84
2023-08-31T08:58:55.229Z,100579.00
2023-08-31T09:01:24.080Z,100590.88
2023-08-31T09:03:52.517Z,100589.19
2023-08-31T09:06:21.864Z,100591.44
2023-08-31T09:08:55.048Z,100598.19
2023-08-31T09:11:25.231Z,100596.19
2023-08-31T09:13:53.106Z,100599.06
2023-08-31T09:16:30.187Z,100589.03
2023-08-31T09:18:57.722Z,100591.19
2023-08-31T09:21:38.220Z,100593.75
2023-08-31T09:24:14.790Z,100588.31
2023-08-31T09:26:46.307Z,100583.47
2023-08-31T09:29:13.697Z,100582.53
2023-08-31T09:31:45.260Z,100582.34
2023-08-31T09:34:12.536Z,100575.81
2023-08-31T09:36:39.559Z,100569.56
2023-08-31T09:39:07.504Z,100572.31
2023-08-31T09:41:35.700Z,100581.06
2023-08-31T09:44:19.289Z,100581.00
2023-08-31T09:46:46.688Z,100578.25
2023-08-31T09:49:15.397Z,100577.78
2023-08-31T09:51:47.004Z,100589.94
2023-08-31T09:54:15.017Z,100593.34
2023-08-31T09:56:47.687Z,100589.81
2023-08-31T09:59:17.475Z,100596.00
2023-08-31T10:01:48.525Z,100590.25
2023-08-31T10:04:16.592Z,100585.47
2023-08-31T10:06:44.119Z,100583.56
2023-08-31T10:09:13.871Z,100585.44
2023-08-31T10:11:43.380Z,100586.09
2023-08-31T10:14:12.248Z,100581.50
2023-08-31T10:16:44.923Z,100585.63
2023-08-31T10:19:12.382Z,100588.38
2023-08-31T10:21:41.888Z,100591.00
2023-08-31T10:24:09.426Z,100595.94
2023-08-31T10:26:36.705Z,100595.22
2023-08-31T10:29:07.356Z,100592.97
2023-08-31T10:31:35.173Z,100586.72
2023-08-31T10:34:06.380Z,100583.25
2023-08-31T10:36:36.443Z,100583.44
2023-08-31T10:39:09.269Z,100581.34
2023-08-31T10:41:39.265Z,100584.34
2023-08-31T10:44:19.300Z,100585.38
2023-08-31T10:46:46.813Z,100584.03
2023-08-31T10:49:15.547Z,100579.94
2023-08-31T10:51:44.325Z,100587.59
2023-08-31T10:54:20.810Z,100580.38
2023-08-31T10:57:09.661Z,100582.75
2023-08-31T10:59:44.581Z,100586.25
2023-08-31T11:02:11.850Z,100583.22
2023-08-31T11:04:56.620Z,100585.25
2023-08-31T11:07:25.885Z,100586.91
2023-08-31T11:09:53.817Z,100580.81
2023-08-31T11:12:23.499Z,100568.78
2023-08-31T11:14:50.889Z,100562.72
2023-08-31T11:17:18.022Z,100576.28
2023-08-31T11:19:45.523Z,100575.81
2023-08-31T11:22:12.666Z,100565.47
2023-08-31T11:24:48.669Z,100578.13
2023-08-31T11:27:19.600Z,100576.16
2023-08-31T11:29:46.827Z,100574.13
2023-08-31T11:32:14.119Z,100580.09
2023-08-31T11:34:43.228Z,100574.41
2023-08-31T11:37:11.101Z,100570.41
2023-08-31T11:39:38.816Z,100578.59
2023-08-31T11:42:06.011Z,100577.06
2023-08-31T11:44:33.299Z,100571.75
2023-08-31T11:47:00.876Z,100576.69
2023-08-31T11:49:28.407Z,100580.75
2023-08-31T11:51:55.845Z,100579.06
2023-08-31T11:54:25.474Z,100578.44
2023-08-31T11:56:52.628Z,100577.25
2023-08-31T11:59:20.182Z,100574.22
2023-08-31T12:01:49.043Z,100580.03
2023-08-31T12:04:26.630Z,100574.00
2023-08-31T12:06:56.918Z,100561.06
2023-08-31T12:09:24.234Z,100560.06
2023-08-31T12:11:52.553Z,100557.03
2023-08-31T12:14:23.864Z,100559.06
2023-08-31T12:16:51.802Z,100556.78
2023-08-31T12:19:19.241Z,100558.91
2023-08-31T12:21:47.321Z,100551.75
2023-08-31T12:24:15.125Z,100557.81
2023-08-31T12:26:42.247Z,100558.53
2023-08-31T12:29:09.420Z,100550.03
2023-08-31T12:31:37.205Z,100548.81
2023-08-31T12:34:05.874Z,100550.69
2023-08-31T12:36:38.440Z,100547.84
2023-08-31T12:39:07.928Z,100552.31
2023-08-31T12:41:35.050Z,100543.28
2023-08-31T12:44:02.140Z,100538.50
2023-08-31T12:46:29.237Z,100550.78
2023-08-31T12:48:56.500Z,100556.44
2023-08-31T12:51:23.800Z,100549.81
2023-08-31T12:53:50.887Z,100550.00
2023-08-31T12:56:22.715Z,100544.59
2023-08-31T12:58:50.969Z,100542.88
2023-08-31T13:01:19.009Z,100544.19
2023-08-31T13:03:46.706Z,100537.88
2023-08-31T13:06:14.286Z,100533.63
2023-08-31T13:08:41.512Z,100540.63
2023-08-31T13:11:08.628Z,100529.56
2023-08-31T13:13:35.733Z,100530.22
2023-08-31T13:16:04.017Z,100530.72
2023-08-31T13:18:31.259Z,100523.97
2023-08-31T13:20:58.443Z,100522.28
2023-08-31T13:23:25.621Z,100528.63
2023-08-31T13:25:52.809Z,100527.44
2023-08-31T13:28:20.125Z,100516.53
2023-08-31T13:30:47.554Z,100520.72
2023-08-31T13:33:14.974Z,100520.78
2023-08-31T13:35:42.100Z,100510.72
2023-08-31T13:38:09.338Z,100517.00
2023-08-31T13:40:37.725Z,100521.06
2023-08-31T13:43:05.198Z,100519.63
2023-08-31T13:45:33.407Z,100521.88
2023-08-31T13:48:01.727Z,100520.94
2023-08-31T13:50:29.228Z,100530.81
2023-08-31T13:52:56.468Z,100524.38
2023-08-31T13:55:24.374Z,100521.75
2023-08-31T13:57:51.640Z,100524.38
2023-08-31T14:00:19.549Z,100530.84
2023-08-31T14:02:47.000Z,100522.94
2023-08-31T14:05:15.820Z,100526.88
2023-08-31T14:07:43.223Z,100533.56
2023-08-31T14:10:10.680Z,100537.16
2023-08-31T14:12:38.066Z,100539.09
2023-08-31T14:15:07.272Z,100536.47
2023-08-31T14:17:34.691Z,100537.16
2023-08-31T14:20:06.831Z,100532.25
2023-08-31T14:22:34.279Z,100532.25
2023-08-31T14:25:02.311Z,100532.13
2023-08-31T14:27:31.152Z,100537.78
2023-08-31T14:29:59.390Z,100535.47
2023-08-31T14:32:28.762Z,100537.63
2023-08-31T14:34:56.678Z,100528.47
2023-08-31T14:37:23.959Z,100539.50
2023-08-31T14:39:51.374Z,100536.09
2023-08-31T14:42:21.484Z,100537.06
2023-08-31T14:44:56.707Z,100538.38
2023-08-31T14:47:24.134Z,100528.03
2023-08-31T14:49:51.442Z,100540.31
2023-08-31T14:52:18.798Z,100538.50
2023-08-31T14:54:46.300Z,100532.63
2023-08-31T14:57:13.628Z,100537.88
2023-08-31T14:59:41.093Z,100535.56
2023-08-31T15:02:37.032Z,100539.84
2023-08-31T15:05:05.960Z,100538.50
2023-08-31T15:08:02.001Z,100539.75
2023-08-31T15:10:29.328Z,100538.75
2023-08-31T15:12:59.672Z,100539.50
2023-08-31T15:15:27.597Z,100536.78
2023-08-31T15:17:55.652Z,100539.75
2023-08-31T15:20:25.644Z,100543.69
2023-08-31T15:23:43.608Z,100543.94
2023-08-31T15:26:35.944Z,100548.31
2023-08-31T15:29:05.142Z,100538.25
2023-08-31T15:31:32.780Z,100544.91
2023-08-31T15:34:00.153Z,100542.59
2023-08-31T15:36:31.171Z,100541.59
2023-08-31T15:38:58.687Z,100533.44
2023-08-31T15:41:26.283Z,100538.66
2023-08-31T15:43:53.613Z,100536.91
2023-08-31T15:46:20.933Z,100532.81
2023-08-31T15:48:50.126Z,100539.31
2023-08-31T15:51:17.576Z,100530.13
2023-08-31T15:53:44.839Z,100535.94
2023-08-31T15:56:12.209Z,100540.97
2023-08-31T15:58:39.519Z,100544.13
2023-08-31T16:01:10.879Z,100547.75
2023-08-31T16:03:38.800Z,100537.84
2023-08-31T16:06:09.044Z,100554.00
2023-08-31T16:08:36.540Z,100546.97
2023-08-31T16:11:07.223Z,100556.28
2023-08-31T16:13:36.868Z,100547.97
2023-08-31T16:16:04.421Z,100554.25
2023-08-31T16:18:31.816Z,100560.91
2023-08-31T16:21:02.422Z,100550.56
2023-08-31T16:23:29.743Z,100553.97
2023-08-31T16:30:37.558Z,100559.34
2023-08-31T16:33:05.251Z,100561.56
2023-08-31T16:35:33.447Z,100561.75
2023-08-31T16:38:02.145Z,100569.09
2023-08-31T16:40:29.412Z,100563.75
2023-08-31T16:42:56.735Z,100568.75
2023-08-31T16:45:24.108Z,100563.41
2023-08-31T16:47:51.498Z,100556.78
2023-08-31T16:50:36.185Z,100561.09
2023-08-31T16:53:04.391Z,100565.06
2023-08-31T16:55:32.553Z,100570.41
2023-08-31T16:58:04.689Z,100560.09
2023-08-31T17:00:32.023Z,100568.75
2023-08-31T17:02:59.422Z,100570.94
2023-08-31T17:05:29.967Z,100563.41
2023-08-31T17:07:57.492Z,100564.69
2023-08-31T17:10:24.879Z,100562.72
2023-08-31T17:12:53.446Z,100564.06
2023-08-31T17:15:20.752Z,100566.09
2023-08-31T17:17:49.348Z,100567.44
2023-08-31T17:20:17.848Z,100563.44
2023-08-31T17:22:46.233Z,100568.78
2023-08-31T17:25:14.223Z,100567.13
2023-08-31T17:27:43.567Z,100565.16
2023-08-31T17:30:11.120Z,100568.66
2023-08-31T17:32:38.620Z,100569.50
2023-08-31T17:35:07.525Z,100577.97
2023-08-31T17:37:35.849Z,100578.09
2023-08-31T17:40:08.069Z,100588.06
2023-08-31T17:42:41.153Z,100587.75
2023-08-31T17:45:09.827Z,100591.38
2023-08-31T17:47:37.187Z,100597.00
2023-08-31T17:50:04.965Z,100605.28
2023-08-31T17:52:32.409Z,100595.31
2023-08-31T17:55:00.069Z,100591.28
2023-08-31T17:57:29.862Z,100598.81
2023-08-31T17:59:57.252Z,100595.78
2023-08-31T18:02:24.689Z,100604.75
2023-08-31T18:04:52.141Z,100606.03
2023-08-31T18:07:19.531Z,100605.63
2023-08-31T18:09:46.792Z,100603.22
2023-08-31T18:12:14.148Z,100614.44
2023-08-31T18:14:44.625Z,100613.75
2023-08-31T18:17:12.699Z,100626.81
2023-08-31T18:19:40.209Z,100623.00
2023-08-31T18:22:07.618Z,100628.78
2023-08-31T18:24:36.881Z,100631.00
2023-08-31T18:27:04.652Z,100631.75
2023-08-31T18:29:31.918Z,100635.53
2023-08-31T18:31:59.188Z,100641.47
2023-08-31T18:34:27.286Z,100642.44
2023-08-31T18:36:54.705Z,100649.50
2023-08-31T18:39:23.598Z,100647.16
2023-08-31T18:41:51.506Z,100646.53
2023-08-31T18:44:18.868Z,100658.06
2023-08-31T18:46:46.147Z,100663.31
2023-08-31T18:49:13.547Z,100663.59
2023-08-31T18:51:44.717Z,100659.56
2023-08-31T18:54:12.191Z,100670.09
2023-08-31T18:56:40.037Z,100674.97
2023-08-31T18:59:07.677Z,100682.19
2023-08-31T19:01:35.007Z,100682.22
2023-08-31T19:04:04.449Z,100689.66
2023-08-31T19:06:35.273Z,100686.97
2023-08-31T19:09:04.664Z,100698.22
2023-08-31T19:11:32.148Z,100701.09
2023-08-31T19:13:59.478Z,100703.84
2023-08-31T19:16:26.707Z,100711.38
2023-08-31T19:18:54.910Z,100717.94
2023-08-31T19:21:23.669Z,100714.94
2023-08-31T19:23:50.727Z,100718.13
2023-08-31T19:26:18.360Z,100721.81
2023-08-31T19:28:45.517Z,100723.56
2023-08-31T19:31:12.687Z,100727.28
2023-08-31T19:33:39.857Z,100734.66
2023-08-31T19:36:07.098Z,100731.34
2023-08-31T19:38:34.606Z,100735.63
2023-08-31T19:41:01.779Z,100734.66
2023-08-31T19:43:28.905Z,100740.66
2023-08-31T19:45:56.053Z,100724.34
2023-08-31T19:48:23.717Z,100732.56
2023-08-31T19:50:53.079Z,100730.47
2023-08-31T19:53:20.712Z,100724.94
2023-08-31T19:55:49.757Z,100724.34
2023-08-31T19:58:17.359Z,100733.84
2023-08-31T20:00:44.443Z,100737.31
2023-08-31T20:03:11.751Z,100732.72
2023-08-31T20:05:38.920Z,100734.94
2023-08-31T20:08:06.288Z,100730.75
2023-08-31T20:10:33.500Z,100741.06
2023-08-31T20:13:00.691Z,100741.66
2023-08-31T20:15:27.875Z,100744.72
2023-08-31T20:17:55.076Z,100748.91
2023-08-31T20:20:22.262Z,100751.13
2023-08-31T20:22:50.361Z,100752.81
2023-08-31T20:25:19.718Z,100759.22
2023-08-31T20:27:47.991Z,100760.88
2023-08-31T20:30:15.222Z,100762.81
2023-08-31T20:32:42.576Z,100762.84
2023-08-31T20:35:11.586Z,100761.97
2023-08-31T20:37:38.943Z,100758.38
2023-08-31T20:40:10.093Z,100768.97
2023-08-31T20:42:37.729Z,100760.47
2023-08-31T20:45:06.339Z,100760.59
2023-08-31T20:47:33.458Z,100755.84
2023-08-31T20:50:00.811Z,100754.19
2023-08-31T20:52:31.238Z,100764.06
2023-08-31T20:54:59.194Z,100754.44
2023-08-31T20:57:26.511Z,100768.94
2023-08-31T20:59:54.532Z,100766.13
2023-08-31T21:02:21.670Z,100769.88
2023-08-31T21:04:49.499Z,100774.81
2023-08-31T21:07:16.679Z,100774.66
2023-08-31T21:09:45.708Z,100777.81
2023-08-31T21:12:14.028Z,100782.78
2023-08-31T21:14:41.216Z,100787.75
2023-08-31T21:17:08.313Z,100786.16
2023-08-31T21:19:35.442Z,100787.56
2023-08-31T21:22:02.576Z,100794.72
2023-08-31T21:24:29.825Z,100796.13
2023-08-31T21:26:56.893Z,100790.53
2023-08-31T21:29:24.265Z,100798.03
2023-08-31T21:31:51.423Z,100792.97
2023-08-31T21:34:18.680Z,100798.59
2023-08-31T21:36:45.874Z,100797.47
2023-08-31T21:39:12.919Z,100795.28
2023-08-31T21:41:40.037Z,100802.56
2023-08-31T21:44:07.220Z,100806.47
2023-08-31T21:46:34.402Z,100805.22
2023-08-31T21:49:01.464Z,100811.94
2023-08-31T21:51:28.640Z,100810.78
2023-08-31T21:53:56.926Z,100813.88
2023-08-31T21:56:23.996Z,100823.19
2023-08-31T21:58:51.056Z,100819.41
2023-08-31T22:01:18.191Z,100826.69
2023-08-31T22:03:45.451Z,100827.88
2023-08-31T22:06:13.332Z,100833.38
2023-08-31T22:08:41.752Z,100827.28
2023-08-31T22:11:08.854Z,100827.84
2023-08-31T22:13:36.622Z,100832.63
2023-08-31T22:16:12.055Z,100834.22
2023-08-31T22:18:50.312Z,100831.06
2023-08-31T22:21:18.307Z,100824.34
2023-08-31T22:23:45.406Z,100831.19
2023-08-31T22:26:12.499Z,100832.28
2023-08-31T22:28:39.710Z,100829.06
2023-08-31T22:31:06.973Z,100829.84
2023-08-31T22:33:34.262Z,100829.38
2023-08-31T22:36:07.345Z,100825.78
2023-08-31T22:38:34.510Z,100828.50
2023-08-31T22:41:05.480Z,100831.97
2023-08-31T22:43:32.553Z,100835.34
2023-08-31T22:45:59.980Z,100842.03
2023-08-31T22:48:27.265Z,100845.38
2023-08-31T22:51:01.272Z,100850.22
2023-08-31T22:53:28.756Z,100854.47
2023-08-31T22:55:55.887Z,100844.31
2023-08-31T22:58:22.999Z,100847.91
2023-08-31T23:00:52.980Z,100837.44
2023-08-31T23:03:21.249Z,100841.91
2023-08-31T23:05:48.492Z,100849.84
2023-08-31T23:08:15.973Z,100854.34
2023-08-31T23:10:43.627Z,100856.34
2023-08-31T23:13:10.951Z,100856.91
2023-08-31T23:15:39.029Z,100845.22
2023-08-31T23:18:06.659Z,100846.72
2023-08-31T23:20:34.220Z,100849.41
2023-08-31T23:23:01.496Z,100847.50
2023-08-31T23:25:28.845Z,100846.81
2023-08-31T23:27:56.159Z,100851.16
2023-08-31T23:30:23.582Z,100854.06
2023-08-31T23:32:51.043Z,100850.94
2023-08-31T23:35:18.810Z,100848.56
2023-08-31T23:37:46.258Z,100850.25
2023-08-31T23:40:13.535Z,100850.72
2023-08-31T23:42:43.545Z,100848.84
2023-08-31T23:45:11.289Z,100846.31
2023-08-31T23:47:38.651Z,100852.69
2023-08-31T23:50:07.026Z,100848.22
2023-08-31T23:52:34.379Z,100841.41
2023-08-31T23:55:04.008Z,100846.31
2023-08-31T23:57:37.358Z,100854.94
